createdAt,value
2023-02-13T00:01:03.531Z,14.07
2023-02-13T00:03:33.058Z,13.63
2023-02-13T00:06:01.218Z,13.10
2023-02-13T00:08:29.741Z,12.37
2023-02-13T00:10:58.910Z,13.10
2023-02-13T00:13:27.651Z,12.80
2023-02-13T00:15:59.177Z,12.80
2023-02-13T00:18:27.704Z,11.63
2023-02-13T00:21:01.880Z,11.87
2023-02-13T00:23:31.184Z,12.00
2023-02-13T00:25:59.703Z,12.23
2023-02-13T00:28:28.379Z,12.53
2023-02-13T00:30:56.844Z,11.47
2023-02-13T00:33:25.178Z,12.53
2023-02-13T00:35:53.401Z,11.40
2023-02-13T00:38:23.697Z,11.43
2023-02-13T00:40:51.732Z,10.47
2023-02-13T00:43:20.422Z,11.43
2023-02-13T00:45:49.398Z,10.90
2023-02-13T00:48:17.304Z,11.37
2023-02-13T00:50:46.234Z,10.70
2023-02-13T00:53:14.457Z,9.93
2023-02-13T00:55:43.994Z,9.93
2023-02-13T00:58:12.113Z,10.97
2023-02-13T01:00:41.094Z,10.73
2023-02-13T01:03:09.873Z,10.63
2023-02-13T01:05:40.522Z,10.20
2023-02-13T01:08:09.709Z,10.60
2023-02-13T01:10:38.600Z,10.70
2023-02-13T01:13:09.594Z,10.13
2023-02-13T01:15:38.166Z,10.23
2023-02-13T01:18:06.311Z,10.80
2023-02-13T01:20:34.700Z,10.63
2023-02-13T01:23:02.672Z,10.37
2023-02-13T01:25:30.775Z,10.33
2023-02-13T01:27:59.359Z,11.57
2023-02-13T01:30:28.807Z,10.20
2023-02-13T01:32:57.034Z,10.93
2023-02-13T01:35:24.986Z,10.63
2023-02-13T01:37:52.891Z,10.70
2023-02-13T01:40:22.735Z,10.73
2023-02-13T01:42:50.750Z,11.13
2023-02-13T01:45:26.050Z,11.63
2023-02-13T01:47:59.147Z,11.43
2023-02-13T01:50:33.054Z,11.63
2023-02-13T01:53:04.338Z,11.73
2023-02-13T01:55:32.814Z,11.80
2023-02-13T01:58:04.014Z,11.23
2023-02-13T02:00:32.386Z,11.33
2023-02-13T02:03:05.229Z,11.03
2023-02-13T02:05:35.668Z,11.10
2023-02-13T02:08:06.137Z,11.17
2023-02-13T02:10:37.545Z,11.77
2023-02-13T02:13:09.518Z,11.33
2023-02-13T02:15:40.191Z,11.37
2023-02-13T02:18:16.381Z,10.97
2023-02-13T02:21:24.945Z,12.43
2023-02-13T02:24:23.108Z,11.93
2023-02-13T02:27:05.422Z,12.00
2023-02-13T02:30:02.166Z,12.17
2023-02-13T02:32:39.509Z,11.47
2023-02-13T02:35:18.404Z,12.57
2023-02-13T02:38:01.188Z,13.17
2023-02-13T02:40:36.012Z,12.57
2023-02-13T02:43:15.882Z,11.43
2023-02-13T02:45:51.202Z,12.90
2023-02-13T02:48:41.692Z,13.50
2023-02-13T02:51:20.411Z,12.70
2023-02-13T02:53:58.517Z,12.93
2023-02-13T02:56:29.963Z,12.73
2023-02-13T02:59:22.173Z,12.73
2023-02-13T03:02:10.031Z,12.10
2023-02-13T03:04:59.166Z,12.80
2023-02-13T03:07:28.250Z,12.57
2023-02-13T03:10:16.069Z,13.33
2023-02-13T03:13:06.550Z,12.77
2023-02-13T03:15:57.361Z,12.60
2023-02-13T03:18:43.405Z,13.27
2023-02-13T03:21:35.066Z,12.47
2023-02-13T03:24:07.658Z,13.20
2023-02-13T03:26:50.119Z,13.77
2023-02-13T03:29:44.607Z,13.37
2023-02-13T03:32:21.672Z,14.07
2023-02-13T03:35:13.805Z,13.20
2023-02-13T03:37:58.041Z,13.70
2023-02-13T03:40:35.057Z,13.03
2023-02-13T03:43:08.878Z,15.00
2023-02-13T03:45:54.392Z,13.60
2023-02-13T03:48:43.282Z,13.93
2023-02-13T03:51:13.703Z,14.47
2023-02-13T03:53:44.100Z,13.30
2023-02-13T03:56:32.508Z,14.13
2023-02-13T03:59:17.774Z,13.07
2023-02-13T04:01:50.272Z,13.37
2023-02-13T04:04:24.156Z,13.87
2023-02-13T04:06:56.245Z,13.50
2023-02-13T04:09:27.261Z,14.43
2023-02-13T04:11:59.124Z,14.60
2023-02-13T04:14:30.416Z,14.73
2023-02-13T04:17:03.661Z,13.67
2023-02-13T04:19:32.895Z,14.57
2023-02-13T04:22:02.871Z,13.57
2023-02-13T04:24:32.580Z,14.27
2023-02-13T04:27:00.583Z,14.07
2023-02-13T04:29:28.746Z,13.50
2023-02-13T04:31:56.752Z,13.80
2023-02-13T04:34:24.747Z,13.73
2023-02-13T04:36:52.723Z,12.90
2023-02-13T04:39:20.839Z,12.73
2023-02-13T04:41:50.275Z,12.40
2023-02-13T04:44:18.281Z,12.93
2023-02-13T04:46:46.288Z,12.87
2023-02-13T04:49:14.433Z,12.53
2023-02-13T04:51:42.529Z,14.00
2023-02-13T04:54:11.823Z,12.03
2023-02-13T04:56:39.817Z,13.20
2023-02-13T04:59:09.355Z,12.70
2023-02-13T05:01:37.415Z,12.37
2023-02-13T05:04:05.694Z,13.77
2023-02-13T05:06:33.658Z,12.80
2023-02-13T05:09:01.629Z,12.23
2023-02-13T05:11:29.829Z,12.77
2023-02-13T05:13:57.811Z,12.83
2023-02-13T05:16:27.240Z,12.63
2023-02-13T05:18:55.293Z,12.93
2023-02-13T05:21:40.763Z,12.70
2023-02-13T05:24:08.902Z,12.90
2023-02-13T05:26:37.015Z,13.60
2023-02-13T05:29:19.989Z,14.33
2023-02-13T05:31:50.459Z,13.07
2023-02-13T05:34:18.680Z,13.70
2023-02-13T05:36:46.864Z,13.43
2023-02-13T05:39:15.241Z,14.13
2023-02-13T05:41:43.657Z,13.27
2023-02-13T05:44:12.449Z,14.77
2023-02-13T05:46:41.564Z,13.97
2023-02-13T05:49:12.038Z,12.37
2023-02-13T05:51:40.180Z,12.80
2023-02-13T05:54:08.181Z,12.37
2023-02-13T05:56:36.268Z,12.43
2023-02-13T05:59:04.424Z,12.43
2023-02-13T06:01:32.506Z,13.17
2023-02-13T06:04:03.667Z,11.60
2023-02-13T06:06:33.301Z,12.97
2023-02-13T06:09:01.326Z,12.23
2023-02-13T06:11:29.348Z,11.93
2023-02-13T06:13:57.403Z,13.13
2023-02-13T06:16:25.462Z,12.50
2023-02-13T06:18:53.814Z,12.13
2023-02-13T06:21:22.624Z,12.40
2023-02-13T06:23:52.115Z,12.87
2023-02-13T06:26:20.136Z,12.03
2023-02-13T06:28:48.163Z,13.17
2023-02-13T06:31:16.222Z,12.67
2023-02-13T06:33:44.269Z,13.23
2023-02-13T06:36:12.424Z,12.90
2023-02-13T06:38:40.498Z,12.97
2023-02-13T06:41:10.201Z,13.60
2023-02-13T06:43:40.009Z,12.90
2023-02-13T06:46:09.953Z,13.07
2023-02-13T06:48:38.142Z,13.80
2023-02-13T06:51:06.486Z,13.87
2023-02-13T06:53:34.504Z,12.90
2023-02-13T06:56:05.559Z,13.43
2023-02-13T06:58:35.302Z,14.27
2023-02-13T07:01:03.592Z,14.50
2023-02-13T07:03:31.861Z,13.20
2023-02-13T07:06:00.383Z,13.60
2023-02-13T07:08:28.736Z,13.97
2023-02-13T07:10:57.333Z,14.33
2023-02-13T07:13:25.844Z,15.00
2023-02-13T07:15:58.116Z,14.10
2023-02-13T07:18:26.812Z,14.80
2023-02-13T07:20:55.077Z,15.33
2023-02-13T07:23:23.364Z,15.07
2023-02-13T07:25:51.491Z,14.70
2023-02-13T07:28:19.751Z,16.30
2023-02-13T07:30:47.790Z,15.20
2023-02-13T07:33:17.202Z,16.00
2023-02-13T07:35:47.561Z,14.40
2023-02-13T07:38:15.935Z,15.37
2023-02-13T07:40:43.970Z,14.60
2023-02-13T07:43:12.538Z,14.90
2023-02-13T07:45:40.764Z,15.40
2023-02-13T07:48:08.740Z,14.27
2023-02-13T07:50:38.153Z,14.83
2023-02-13T07:53:06.100Z,14.83
2023-02-13T07:55:34.051Z,14.97
2023-02-13T07:58:02.372Z,13.83
2023-02-13T08:00:30.449Z,14.10
2023-02-13T08:03:00.343Z,14.50
2023-02-13T08:05:28.322Z,14.33
2023-02-13T08:07:57.651Z,14.40
2023-02-13T08:10:45.951Z,14.37
2023-02-13T08:13:15.308Z,14.87
2023-02-13T08:15:44.485Z,13.33
2023-02-13T08:18:12.433Z,13.20
2023-02-13T08:20:40.405Z,13.33
2023-02-13T08:23:12.131Z,13.43
2023-02-13T08:25:40.635Z,13.40
2023-02-13T08:28:08.757Z,12.80
2023-02-13T08:30:36.992Z,12.37
2023-02-13T08:33:05.420Z,12.33
2023-02-13T08:35:33.543Z,11.70
2023-02-13T08:38:03.856Z,12.77
2023-02-13T08:40:33.713Z,12.70
2023-02-13T08:43:02.602Z,12.97
2023-02-13T08:45:30.824Z,11.10
2023-02-13T08:47:59.203Z,12.30
2023-02-13T08:50:28.913Z,11.87
2023-02-13T08:52:57.020Z,11.70
2023-02-13T08:55:25.082Z,11.27
2023-02-13T08:57:54.583Z,12.00
2023-02-13T09:00:23.011Z,11.50
2023-02-13T09:02:51.173Z,11.90
2023-02-13T09:05:19.202Z,11.97
2023-02-13T09:07:47.409Z,11.77
2023-02-13T09:10:15.535Z,11.77
2023-02-13T09:12:43.571Z,11.27
2023-02-13T09:15:13.043Z,11.33
2023-02-13T09:17:44.191Z,11.37
2023-02-13T09:20:14.007Z,12.07
2023-02-13T09:22:42.207Z,11.77
2023-02-13T09:25:10.969Z,11.40
2023-02-13T09:27:39.320Z,11.63
2023-02-13T09:30:09.287Z,10.67
2023-02-13T09:32:38.975Z,10.60
2023-02-13T09:35:07.579Z,10.93
2023-02-13T09:37:35.731Z,11.57
2023-02-13T09:40:04.308Z,10.73
2023-02-13T09:42:36.888Z,11.43
2023-02-13T09:45:07.325Z,10.70
2023-02-13T09:47:38.207Z,10.97
2023-02-13T09:50:11.682Z,10.17
2023-02-13T09:52:41.325Z,10.50
2023-02-13T09:55:17.460Z,10.13
2023-02-13T09:57:48.636Z,10.50
2023-02-13T10:00:20.993Z,9.80
2023-02-13T10:03:02.339Z,10.37
2023-02-13T10:05:42.014Z,10.33
2023-02-13T10:08:16.847Z,9.77
2023-02-13T10:10:52.494Z,10.30
2023-02-13T10:13:31.183Z,10.17
2023-02-13T10:16:03.710Z,9.67
2023-02-13T10:18:38.506Z,8.97
2023-02-13T10:21:07.447Z,8.93
2023-02-13T10:23:40.659Z,8.53
2023-02-13T10:26:13.881Z,8.87
2023-02-13T10:28:43.864Z,9.17
2023-02-13T10:31:15.183Z,9.20
2023-02-13T10:33:50.260Z,8.80
2023-02-13T10:36:20.943Z,8.73
2023-02-13T10:38:57.933Z,9.00
2023-02-13T10:41:29.255Z,7.70
2023-02-13T10:44:10.912Z,7.60
2023-02-13T10:46:47.914Z,7.90
2023-02-13T10:49:28.852Z,7.97
2023-02-13T10:52:05.088Z,8.50
2023-02-13T10:54:50.490Z,8.07
2023-02-13T10:57:23.067Z,8.20
2023-02-13T11:00:06.175Z,7.77
2023-02-13T11:02:37.018Z,7.80
2023-02-13T11:05:15.703Z,7.70
2023-02-13T11:07:43.974Z,7.40
2023-02-13T11:10:17.448Z,7.77
2023-02-13T11:12:45.634Z,7.53
2023-02-13T11:15:26.795Z,7.80
2023-02-13T11:17:58.767Z,7.90
2023-02-13T11:20:31.914Z,6.90
2023-02-13T11:23:28.044Z,7.73
2023-02-13T11:25:59.160Z,6.90
2023-02-13T11:28:30.037Z,6.77
2023-02-13T11:31:12.109Z,6.80
2023-02-13T11:33:40.528Z,6.63
2023-02-13T11:36:11.866Z,6.97
2023-02-13T11:38:40.041Z,7.10
2023-02-13T11:41:10.967Z,6.70
2023-02-13T11:43:45.831Z,7.23
2023-02-13T11:46:20.459Z,6.53
2023-02-13T11:49:00.335Z,6.40
2023-02-13T11:51:41.652Z,6.33
2023-02-13T11:54:25.125Z,6.30
2023-02-13T11:57:04.888Z,6.33
2023-02-13T11:59:41.167Z,6.60
2023-02-13T12:02:22.477Z,6.23
2023-02-13T12:04:52.592Z,5.93
2023-02-13T12:07:25.118Z,6.23
2023-02-13T12:09:59.496Z,5.30
2023-02-13T12:12:31.839Z,5.70
2023-02-13T12:15:03.470Z,5.53
2023-02-13T12:17:32.738Z,4.57
2023-02-13T12:20:01.487Z,4.97
2023-02-13T12:22:40.838Z,5.47
2023-02-13T12:25:36.764Z,5.00
2023-02-13T12:28:12.554Z,4.83
2023-02-13T12:31:06.205Z,4.63
2023-02-13T12:33:47.839Z,4.60
2023-02-13T12:36:18.401Z,4.60
2023-02-13T12:39:13.495Z,4.77
2023-02-13T12:41:49.914Z,5.37
2023-02-13T12:44:38.572Z,4.20
2023-02-13T12:47:18.227Z,4.30
2023-02-13T12:50:21.063Z,4.13
2023-02-13T12:53:04.871Z,5.00
2023-02-13T12:55:54.185Z,4.63
2023-02-13T12:58:47.534Z,4.60
2023-02-13T13:01:24.588Z,5.03
2023-02-13T13:03:58.653Z,4.33
2023-02-13T13:06:40.867Z,4.23
2023-02-13T13:09:26.765Z,4.40
2023-02-13T13:12:08.633Z,4.50
2023-02-13T13:14:42.873Z,4.20
2023-02-13T13:17:20.368Z,4.30
2023-02-13T13:19:55.276Z,4.37
2023-02-13T13:22:27.166Z,4.00
2023-02-13T13:25:00.635Z,4.60
2023-02-13T13:27:33.265Z,4.00
2023-02-13T13:30:06.469Z,3.77
2023-02-13T13:32:35.555Z,3.70
2023-02-13T13:35:03.697Z,3.50
2023-02-13T13:37:36.555Z,3.80
2023-02-13T13:40:23.287Z,4.10
2023-02-13T13:42:54.998Z,3.50
2023-02-13T13:45:32.284Z,3.60
2023-02-13T13:48:41.728Z,3.03
2023-02-13T13:51:11.189Z,3.00
2023-02-13T13:54:18.352Z,3.60
2023-02-13T13:57:09.210Z,2.90
2023-02-13T14:00:25.164Z,2.90
2023-02-13T14:03:26.591Z,3.20
2023-02-13T14:06:01.325Z,3.20
2023-02-13T14:09:06.948Z,3.00
2023-02-13T14:11:47.193Z,3.37
2023-02-13T14:14:45.557Z,3.20
2023-02-13T14:17:15.336Z,3.50
2023-02-13T14:19:47.848Z,3.23
2023-02-13T14:22:36.217Z,3.03
2023-02-13T14:25:09.021Z,3.10
2023-02-13T14:27:38.488Z,3.40
2023-02-13T14:30:09.431Z,3.23
2023-02-13T14:32:38.459Z,3.70
2023-02-13T14:35:18.356Z,3.00
2023-02-13T14:37:51.245Z,2.70
2023-02-13T14:40:49.132Z,3.20
2023-02-13T14:43:23.176Z,2.97
2023-02-13T14:45:55.722Z,3.30
2023-02-13T14:48:29.850Z,3.67
2023-02-13T14:51:00.215Z,2.97
2023-02-13T14:53:31.465Z,3.30
2023-02-13T14:56:03.053Z,3.47
2023-02-13T14:58:33.589Z,3.03
2023-02-13T15:01:06.218Z,3.50
2023-02-13T15:03:39.398Z,3.33
2023-02-13T15:06:25.028Z,3.00
2023-02-13T15:08:54.200Z,3.37
2023-02-13T15:11:37.925Z,3.40
2023-02-13T15:14:26.804Z,3.13
2023-02-13T15:16:58.253Z,3.43
2023-02-13T15:19:28.311Z,3.43
2023-02-13T15:21:59.771Z,3.50
2023-02-13T15:24:36.254Z,5.63
2023-02-13T15:27:06.419Z,3.93
2023-02-13T15:29:48.810Z,3.30
2023-02-13T15:32:22.149Z,4.90
2023-02-13T15:34:50.468Z,4.40
2023-02-13T15:37:24.123Z,4.67
2023-02-13T15:39:52.162Z,4.20
2023-02-13T15:42:20.291Z,4.53
2023-02-13T15:44:50.147Z,4.40
2023-02-13T15:47:20.497Z,4.33
2023-02-13T15:49:50.579Z,4.17
2023-02-13T15:52:21.682Z,4.47
2023-02-13T15:54:53.386Z,4.10
2023-02-13T15:57:23.397Z,3.90
2023-02-13T15:59:52.327Z,4.97
2023-02-13T16:02:22.763Z,4.73
2023-02-13T16:04:53.112Z,4.70
2023-02-13T16:07:21.539Z,4.20
2023-02-13T16:09:52.066Z,4.23
2023-02-13T16:12:22.722Z,4.10
2023-02-13T16:14:53.860Z,4.23
2023-02-13T16:17:28.188Z,4.00
2023-02-13T16:19:59.382Z,4.40
2023-02-13T16:22:32.331Z,4.00
2023-02-13T16:25:12.692Z,4.10
2023-02-13T16:27:44.022Z,3.93
2023-02-13T16:30:33.360Z,3.80
2023-02-13T16:33:28.360Z,3.73
2023-02-13T16:35:57.310Z,4.37
2023-02-13T16:38:32.150Z,4.23
2023-02-13T16:41:03.200Z,4.10
2023-02-13T16:43:35.748Z,4.00
2023-02-13T16:46:23.206Z,3.50
2023-02-13T16:49:06.873Z,3.73
2023-02-13T16:51:38.301Z,3.70
2023-02-13T16:54:16.744Z,3.90
2023-02-13T16:56:49.308Z,4.30
2023-02-13T16:59:26.330Z,4.10
2023-02-13T17:02:09.767Z,4.40
2023-02-13T17:04:43.260Z,4.27
2023-02-13T17:07:16.278Z,4.60
2023-02-13T17:09:44.429Z,4.63
2023-02-13T17:12:18.662Z,4.60
2023-02-13T17:14:47.360Z,4.10
2023-02-13T17:17:18.160Z,4.40
2023-02-13T17:19:46.590Z,4.13
2023-02-13T17:22:26.899Z,4.47
2023-02-13T17:24:54.925Z,4.07
2023-02-13T17:27:24.572Z,4.43
2023-02-13T17:29:53.827Z,3.73
2023-02-13T17:32:23.845Z,4.27
2023-02-13T17:34:52.109Z,4.60
2023-02-13T17:37:26.357Z,4.90
2023-02-13T17:39:55.190Z,4.30
2023-02-13T17:42:26.172Z,4.20
2023-02-13T17:44:55.313Z,4.43
2023-02-13T17:47:24.295Z,4.60
2023-02-13T17:49:57.031Z,4.43
2023-02-13T17:52:32.033Z,4.53
2023-02-13T17:55:00.104Z,4.63
2023-02-13T17:57:29.589Z,4.63
2023-02-13T17:59:59.424Z,4.10
2023-02-13T18:02:28.739Z,4.60
2023-02-13T18:04:57.046Z,4.60
2023-02-13T18:07:25.261Z,4.47
2023-02-13T18:09:53.616Z,5.00
2023-02-13T18:12:23.770Z,4.30
2023-02-13T18:14:54.031Z,4.37
2023-02-13T18:17:22.593Z,4.10
2023-02-13T18:19:51.557Z,3.60
2023-02-13T18:22:19.838Z,3.43
2023-02-13T18:24:48.017Z,3.10
2023-02-13T18:27:16.191Z,2.67
2023-02-13T18:29:44.488Z,2.80
2023-02-13T18:32:14.247Z,2.67
2023-02-13T18:34:42.325Z,2.67
2023-02-13T18:37:10.693Z,2.53
2023-02-13T18:39:38.858Z,2.63
2023-02-13T18:42:07.102Z,2.40
2023-02-13T18:44:35.417Z,2.30
2023-02-13T18:47:03.985Z,2.60
2023-02-13T18:49:33.553Z,2.60
2023-02-13T18:52:02.527Z,2.23
2023-02-13T18:54:31.054Z,2.57
2023-02-13T18:56:59.258Z,2.90
2023-02-13T18:59:27.681Z,2.67
2023-02-13T19:01:55.870Z,2.40
2023-02-13T19:04:24.283Z,2.87
2023-02-13T19:06:56.474Z,3.00
2023-02-13T19:09:24.621Z,2.70
2023-02-13T19:11:52.774Z,2.93
2023-02-13T19:14:21.966Z,2.73
2023-02-13T19:16:50.370Z,2.87
2023-02-13T19:19:18.471Z,3.23
2023-02-13T19:21:46.565Z,3.03
2023-02-13T19:24:17.002Z,2.70
2023-02-13T19:26:45.651Z,2.70
2023-02-13T19:29:14.083Z,3.63
2023-02-13T19:31:42.421Z,3.33
2023-02-13T19:34:10.635Z,3.33
2023-02-13T19:36:38.844Z,3.53
2023-02-13T19:39:09.066Z,3.53
2023-02-13T19:41:40.726Z,3.33
2023-02-13T19:44:09.417Z,4.07
2023-02-13T19:46:38.244Z,3.90
2023-02-13T19:49:07.054Z,4.37
2023-02-13T19:51:35.795Z,3.77
2023-02-13T19:54:06.226Z,3.97
2023-02-13T19:56:35.286Z,3.80
2023-02-13T19:59:04.860Z,4.40
2023-02-13T20:01:33.165Z,5.83
2023-02-13T20:04:01.447Z,6.40
2023-02-13T20:06:32.706Z,6.30
2023-02-13T20:09:01.823Z,6.00
2023-02-13T20:11:30.765Z,6.40
2023-02-13T20:14:00.678Z,5.97
2023-02-13T20:16:35.238Z,5.50
2023-02-13T20:19:06.377Z,5.70
2023-02-13T20:21:35.430Z,5.07
2023-02-13T20:24:04.119Z,5.50
2023-02-13T20:26:32.690Z,5.87
2023-02-13T20:29:01.458Z,5.80
2023-02-13T20:31:33.671Z,4.70
2023-02-13T20:34:02.338Z,6.70
2023-02-13T20:36:32.423Z,6.43
2023-02-13T20:39:03.049Z,5.87
2023-02-13T20:41:32.532Z,6.23
2023-02-13T20:44:01.864Z,6.47
2023-02-13T20:46:32.563Z,6.80
2023-02-13T20:49:00.912Z,6.47
2023-02-13T20:51:29.755Z,6.67
2023-02-13T20:53:59.039Z,6.43
2023-02-13T20:56:30.842Z,7.03
2023-02-13T20:59:00.652Z,6.10
2023-02-13T21:01:32.604Z,6.93
2023-02-13T21:04:01.049Z,7.40
2023-02-13T21:06:30.763Z,7.30
2023-02-13T21:08:59.265Z,7.73
2023-02-13T21:11:28.370Z,7.20
2023-02-13T21:13:57.747Z,7.20
2023-02-13T21:16:27.726Z,8.30
2023-02-13T21:18:59.763Z,7.07
2023-02-13T21:21:31.358Z,7.60
2023-02-13T21:24:02.762Z,7.73
2023-02-13T21:26:31.794Z,8.37
2023-02-13T21:29:00.446Z,8.10
2023-02-13T21:31:30.834Z,7.60
2023-02-13T21:34:03.425Z,7.50
2023-02-13T21:36:33.560Z,8.20
2023-02-13T21:39:03.149Z,8.27
2023-02-13T21:41:31.294Z,8.53
2023-02-13T21:43:59.383Z,8.63
2023-02-13T21:46:29.598Z,8.17
2023-02-13T21:49:00.769Z,8.47
2023-02-13T21:51:31.037Z,9.00
2023-02-13T21:53:59.402Z,7.60
2023-02-13T21:56:29.607Z,8.80
2023-02-13T21:58:58.175Z,8.40
2023-02-13T22:01:27.774Z,9.03
2023-02-13T22:04:00.224Z,9.57
2023-02-13T22:06:31.543Z,9.30
2023-02-13T22:09:00.888Z,8.97
2023-02-13T22:11:29.280Z,8.70
2023-02-13T22:13:58.019Z,8.80
2023-02-13T22:16:26.455Z,8.57
2023-02-13T22:18:54.570Z,9.77
2023-02-13T22:21:24.691Z,9.57
2023-02-13T22:23:54.650Z,9.40
2023-02-13T22:26:24.076Z,10.80
2023-02-13T22:28:52.786Z,9.43
2023-02-13T22:31:25.228Z,10.23
2023-02-13T22:34:09.111Z,10.33
2023-02-13T22:36:39.580Z,10.47
2023-02-13T22:39:13.499Z,10.37
2023-02-13T22:41:45.783Z,10.17
2023-02-13T22:44:14.031Z,10.13
2023-02-13T22:46:42.307Z,10.40
2023-02-13T22:49:10.395Z,10.83
2023-02-13T22:51:38.402Z,9.67
2023-02-13T22:54:06.728Z,9.97
2023-02-13T22:56:36.114Z,9.60
2023-02-13T22:59:04.712Z,10.40
2023-02-13T23:01:32.809Z,10.30
2023-02-13T23:04:01.132Z,11.10
2023-02-13T23:06:29.430Z,10.60
2023-02-13T23:08:57.945Z,9.83
2023-02-13T23:11:45.443Z,10.03
2023-02-13T23:14:15.466Z,10.17
2023-02-13T23:17:01.329Z,10.40
2023-02-13T23:19:30.422Z,10.10
2023-02-13T23:21:58.534Z,10.47
2023-02-13T23:24:26.832Z,9.27
2023-02-13T23:26:54.878Z,10.10
2023-02-13T23:29:24.522Z,9.77
2023-02-13T23:31:52.652Z,10.50
2023-02-13T23:34:20.772Z,10.27
2023-02-13T23:36:48.928Z,9.43
2023-02-13T23:39:17.045Z,10.80
2023-02-13T23:41:45.161Z,10.47
2023-02-13T23:44:13.204Z,10.43
2023-02-13T23:46:42.655Z,10.03
2023-02-13T23:49:10.738Z,10.10
2023-02-13T23:51:38.709Z,11.27
2023-02-13T23:54:06.933Z,11.57
2023-02-13T23:56:35.397Z,9.80
2023-02-13T23:59:03.581Z,10.60
